<?xml version="1.0" encoding="UTF-8" standalone="no" ?>
<gpx xmlns="http://www.topografix.com/GPX/1/1" xmlns:xsi="http://www.w3.org/2001/XMLSchema-instance" xsi:schemaLocation="http://www.topografix.com/GPX/1/1 http://www.topografix.com/GPX/1/1/gpx.xsd" version="1.1" creator="VisuGPX - https://www.visugpx.com">
  <metadata>
    <name>13881387-Bogy-Peyraud G2 V1-PAT</name>
  </metadata>
  <trk>
    <name><![CDATA[13881387-Bogy-Peyraud G2 V1-PAT]]></name>
    <trkseg>
      <trkpt lat="45.30193" lon="4.7881">
        <ele>137</ele>
        <time>2021-11-05T10:38:54Z</time>
      </trkpt>
      <trkpt lat="45.30191" lon="4.78814">
        <ele>137</ele>
        <time>2021-11-05T10:38:59Z</time>
      </trkpt>
      <trkpt lat="45.30187" lon="4.7882">
        <ele>137</ele>
        <time>2021-11-05T10:39:06Z</time>
      </trkpt>
      <trkpt lat="45.30197" lon="4.78833">
        <ele>137</ele>
        <time>2021-11-05T10:39:24Z</time>
      </trkpt>
      <trkpt lat="45.30203" lon="4.78856">
        <ele>137</ele>
        <time>2021-11-05T10:39:47Z</time>
      </trkpt>
      <trkpt lat="45.30203" lon="4.78884">
        <ele>138</ele>
        <time>2021-11-05T10:40:14Z</time>
      </trkpt>
      <trkpt lat="45.30207" lon="4.789">
        <ele>138</ele>
        <time>2021-11-05T10:40:30Z</time>
      </trkpt>
      <trkpt lat="45.30193" lon="4.78966">
        <ele>136</ele>
        <time>2021-11-05T10:41:34Z</time>
      </trkpt>
      <trkpt lat="45.30191" lon="4.78992">
        <ele>135</ele>
        <time>2021-11-05T10:41:59Z</time>
      </trkpt>
      <trkpt lat="45.3019" lon="4.79004">
        <ele>135</ele>
        <time>2021-11-05T10:42:10Z</time>
      </trkpt>
      <trkpt lat="45.30191" lon="4.79041">
        <ele>135</ele>
        <time>2021-11-05T10:42:45Z</time>
      </trkpt>
      <trkpt lat="45.30199" lon="4.7908">
        <ele>136</ele>
        <time>2021-11-05T10:43:23Z</time>
      </trkpt>
      <trkpt lat="45.30211" lon="4.79122">
        <ele>136</ele>
        <time>2021-11-05T10:44:06Z</time>
      </trkpt>
      <trkpt lat="45.30227" lon="4.79155">
        <ele>137</ele>
        <time>2021-11-05T10:44:43Z</time>
      </trkpt>
      <trkpt lat="45.30226" lon="4.79159">
        <ele>137</ele>
        <time>2021-11-05T10:44:47Z</time>
      </trkpt>
      <trkpt lat="45.30227" lon="4.79155">
        <ele>137</ele>
        <time>2021-11-05T10:44:51Z</time>
      </trkpt>
      <trkpt lat="45.30279" lon="4.79114">
        <ele>137</ele>
        <time>2021-11-05T10:46:11Z</time>
      </trkpt>
      <trkpt lat="45.303" lon="4.79082">
        <ele>136</ele>
        <time>2021-11-05T10:46:52Z</time>
      </trkpt>
      <trkpt lat="45.30368" lon="4.78934">
        <ele>137</ele>
        <time>2021-11-05T10:49:38Z</time>
      </trkpt>
      <trkpt lat="45.30387" lon="4.78883">
        <ele>137</ele>
        <time>2021-11-05T10:50:32Z</time>
      </trkpt>
      <trkpt lat="45.304" lon="4.78855">
        <ele>137</ele>
        <time>2021-11-05T10:51:03Z</time>
      </trkpt>
      <trkpt lat="45.30447" lon="4.78809">
        <ele>136</ele>
        <time>2021-11-05T10:52:19Z</time>
      </trkpt>
      <trkpt lat="45.30486" lon="4.78759">
        <ele>135</ele>
        <time>2021-11-05T10:53:30Z</time>
      </trkpt>
      <trkpt lat="45.3052" lon="4.78712">
        <ele>135</ele>
        <time>2021-11-05T10:54:33Z</time>
      </trkpt>
      <trkpt lat="45.30551" lon="4.78657">
        <ele>136</ele>
        <time>2021-11-05T10:55:39Z</time>
      </trkpt>
      <trkpt lat="45.30559" lon="4.78655">
        <ele>135</ele>
        <time>2021-11-05T10:55:50Z</time>
      </trkpt>
      <trkpt lat="45.30573" lon="4.78667">
        <ele>134</ele>
        <time>2021-11-05T10:56:12Z</time>
      </trkpt>
      <trkpt lat="45.30588" lon="4.78696">
        <ele>133</ele>
        <time>2021-11-05T10:56:45Z</time>
      </trkpt>
      <trkpt lat="45.30602" lon="4.78703">
        <ele>134</ele>
        <time>2021-11-05T10:57:05Z</time>
      </trkpt>
      <trkpt lat="45.3065" lon="4.78643">
        <ele>137</ele>
        <time>2021-11-05T10:58:31Z</time>
      </trkpt>
      <trkpt lat="45.30684" lon="4.78605">
        <ele>137</ele>
        <time>2021-11-05T10:59:28Z</time>
      </trkpt>
      <trkpt lat="45.307" lon="4.78585">
        <ele>137</ele>
        <time>2021-11-05T10:59:57Z</time>
      </trkpt>
      <trkpt lat="45.30742" lon="4.78475">
        <ele>136</ele>
        <time>2021-11-05T11:01:54Z</time>
      </trkpt>
      <trkpt lat="45.30748" lon="4.78464">
        <ele>136</ele>
        <time>2021-11-05T11:02:07Z</time>
      </trkpt>
      <trkpt lat="45.30759" lon="4.78445">
        <ele>135</ele>
        <time>2021-11-05T11:02:30Z</time>
      </trkpt>
      <trkpt lat="45.30778" lon="4.7839">
        <ele>136</ele>
        <time>2021-11-05T11:03:28Z</time>
      </trkpt>
      <trkpt lat="45.30784" lon="4.78357">
        <ele>136</ele>
        <time>2021-11-05T11:04:00Z</time>
      </trkpt>
      <trkpt lat="45.30792" lon="4.78329">
        <ele>136</ele>
        <time>2021-11-05T11:04:28Z</time>
      </trkpt>
      <trkpt lat="45.30825" lon="4.78259">
        <ele>137</ele>
        <time>2021-11-05T11:05:47Z</time>
      </trkpt>
      <trkpt lat="45.30839" lon="4.78213">
        <ele>137</ele>
        <time>2021-11-05T11:06:34Z</time>
      </trkpt>
      <trkpt lat="45.30857" lon="4.78184">
        <ele>137</ele>
        <time>2021-11-05T11:07:11Z</time>
      </trkpt>
      <trkpt lat="45.30901" lon="4.7809">
        <ele>136</ele>
        <time>2021-11-05T11:08:57Z</time>
      </trkpt>
      <trkpt lat="45.30935" lon="4.78009">
        <ele>134</ele>
        <time>2021-11-05T11:10:25Z</time>
      </trkpt>
      <trkpt lat="45.30992" lon="4.77887">
        <ele>136</ele>
        <time>2021-11-05T11:12:43Z</time>
      </trkpt>
      <trkpt lat="45.31029" lon="4.77793">
        <ele>135</ele>
        <time>2021-11-05T11:14:24Z</time>
      </trkpt>
      <trkpt lat="45.31108" lon="4.77626">
        <ele>136</ele>
        <time>2021-11-05T11:17:33Z</time>
      </trkpt>
      <trkpt lat="45.312" lon="4.77468">
        <ele>137</ele>
        <time>2021-11-05T11:20:45Z</time>
      </trkpt>
      <trkpt lat="45.31218" lon="4.77445">
        <ele>137</ele>
        <time>2021-11-05T11:21:17Z</time>
      </trkpt>
      <trkpt lat="45.31274" lon="4.77323">
        <ele>135</ele>
        <time>2021-11-05T11:23:34Z</time>
      </trkpt>
      <trkpt lat="45.31313" lon="4.77253">
        <ele>138</ele>
        <time>2021-11-05T11:24:58Z</time>
      </trkpt>
      <trkpt lat="45.31363" lon="4.77159">
        <ele>137</ele>
        <time>2021-11-05T11:26:48Z</time>
      </trkpt>
      <trkpt lat="45.31384" lon="4.77099">
        <ele>138</ele>
        <time>2021-11-05T11:27:51Z</time>
      </trkpt>
      <trkpt lat="45.3139" lon="4.77083">
        <ele>138</ele>
        <time>2021-11-05T11:28:08Z</time>
      </trkpt>
      <trkpt lat="45.31391" lon="4.77074">
        <ele>138</ele>
        <time>2021-11-05T11:28:17Z</time>
      </trkpt>
      <trkpt lat="45.31388" lon="4.77062">
        <ele>139</ele>
        <time>2021-11-05T11:28:29Z</time>
      </trkpt>
      <trkpt lat="45.31387" lon="4.77045">
        <ele>139</ele>
        <time>2021-11-05T11:28:45Z</time>
      </trkpt>
      <trkpt lat="45.31378" lon="4.77019">
        <ele>139</ele>
        <time>2021-11-05T11:29:12Z</time>
      </trkpt>
      <trkpt lat="45.31377" lon="4.77012">
        <ele>139</ele>
        <time>2021-11-05T11:29:19Z</time>
      </trkpt>
      <trkpt lat="45.31386" lon="4.76953">
        <ele>145</ele>
        <time>2021-11-05T11:30:15Z</time>
      </trkpt>
      <trkpt lat="45.31407" lon="4.76932">
        <ele>145</ele>
        <time>2021-11-05T11:30:50Z</time>
      </trkpt>
      <trkpt lat="45.31413" lon="4.76924">
        <ele>145</ele>
        <time>2021-11-05T11:31:01Z</time>
      </trkpt>
      <trkpt lat="45.31417" lon="4.76913">
        <ele>146</ele>
        <time>2021-11-05T11:31:12Z</time>
      </trkpt>
      <trkpt lat="45.31419" lon="4.769">
        <ele>151</ele>
        <time>2021-11-05T11:31:25Z</time>
      </trkpt>
      <trkpt lat="45.31422" lon="4.76892">
        <ele>153</ele>
        <time>2021-11-05T11:31:33Z</time>
      </trkpt>
      <trkpt lat="45.31455" lon="4.76873">
        <ele>152</ele>
        <time>2021-11-05T11:32:21Z</time>
      </trkpt>
      <trkpt lat="45.31463" lon="4.76862">
        <ele>152</ele>
        <time>2021-11-05T11:32:36Z</time>
      </trkpt>
      <trkpt lat="45.31482" lon="4.76841">
        <ele>150</ele>
        <time>2021-11-05T11:33:08Z</time>
      </trkpt>
      <trkpt lat="45.31517" lon="4.76807">
        <ele>150</ele>
        <time>2021-11-05T11:34:04Z</time>
      </trkpt>
      <trkpt lat="45.3156" lon="4.76735">
        <ele>153</ele>
        <time>2021-11-05T11:35:33Z</time>
      </trkpt>
      <trkpt lat="45.31575" lon="4.76708">
        <ele>151</ele>
        <time>2021-11-05T11:36:05Z</time>
      </trkpt>
      <trkpt lat="45.31594" lon="4.7665">
        <ele>154</ele>
        <time>2021-11-05T11:37:05Z</time>
      </trkpt>
      <trkpt lat="45.3166" lon="4.76535">
        <ele>152</ele>
        <time>2021-11-05T11:39:25Z</time>
      </trkpt>
      <trkpt lat="45.31669" lon="4.76515">
        <ele>152</ele>
        <time>2021-11-05T11:39:47Z</time>
      </trkpt>
      <trkpt lat="45.31669" lon="4.76493">
        <ele>155</ele>
        <time>2021-11-05T11:40:08Z</time>
      </trkpt>
      <trkpt lat="45.31669" lon="4.76476">
        <ele>158</ele>
        <time>2021-11-05T11:40:23Z</time>
      </trkpt>
      <trkpt lat="45.31675" lon="4.76464">
        <ele>158</ele>
        <time>2021-11-05T11:40:37Z</time>
      </trkpt>
      <trkpt lat="45.3168" lon="4.76434">
        <ele>162</ele>
        <time>2021-11-05T11:41:06Z</time>
      </trkpt>
      <trkpt lat="45.31689" lon="4.76408">
        <ele>163</ele>
        <time>2021-11-05T11:41:33Z</time>
      </trkpt>
      <trkpt lat="45.31698" lon="4.76389">
        <ele>163</ele>
        <time>2021-11-05T11:41:55Z</time>
      </trkpt>
      <trkpt lat="45.31709" lon="4.76375">
        <ele>162</ele>
        <time>2021-11-05T11:42:15Z</time>
      </trkpt>
      <trkpt lat="45.3172" lon="4.76351">
        <ele>161</ele>
        <time>2021-11-05T11:42:41Z</time>
      </trkpt>
      <trkpt lat="45.31736" lon="4.76291">
        <ele>166</ele>
        <time>2021-11-05T11:43:42Z</time>
      </trkpt>
      <trkpt lat="45.31742" lon="4.76262">
        <ele>170</ele>
        <time>2021-11-05T11:44:10Z</time>
      </trkpt>
      <trkpt lat="45.31754" lon="4.76217">
        <ele>173</ele>
        <time>2021-11-05T11:44:55Z</time>
      </trkpt>
      <trkpt lat="45.31757" lon="4.76193">
        <ele>174</ele>
        <time>2021-11-05T11:45:18Z</time>
      </trkpt>
      <trkpt lat="45.31758" lon="4.7616">
        <ele>177</ele>
        <time>2021-11-05T11:45:49Z</time>
      </trkpt>
      <trkpt lat="45.31755" lon="4.76149">
        <ele>178</ele>
        <time>2021-11-05T11:46:00Z</time>
      </trkpt>
      <trkpt lat="45.31735" lon="4.76105">
        <ele>184</ele>
        <time>2021-11-05T11:46:49Z</time>
      </trkpt>
      <trkpt lat="45.31724" lon="4.7609">
        <ele>186</ele>
        <time>2021-11-05T11:47:10Z</time>
      </trkpt>
      <trkpt lat="45.31719" lon="4.76066">
        <ele>189</ele>
        <time>2021-11-05T11:47:33Z</time>
      </trkpt>
      <trkpt lat="45.31712" lon="4.76052">
        <ele>191</ele>
        <time>2021-11-05T11:47:49Z</time>
      </trkpt>
      <trkpt lat="45.31702" lon="4.76024">
        <ele>195</ele>
        <time>2021-11-05T11:48:19Z</time>
      </trkpt>
      <trkpt lat="45.31699" lon="4.76007">
        <ele>197</ele>
        <time>2021-11-05T11:48:35Z</time>
      </trkpt>
      <trkpt lat="45.31704" lon="4.75992">
        <ele>198</ele>
        <time>2021-11-05T11:48:51Z</time>
      </trkpt>
      <trkpt lat="45.3171" lon="4.75983">
        <ele>199</ele>
        <time>2021-11-05T11:49:02Z</time>
      </trkpt>
      <trkpt lat="45.31702" lon="4.75987">
        <ele>199</ele>
        <time>2021-11-05T11:49:14Z</time>
      </trkpt>
      <trkpt lat="45.31699" lon="4.75983">
        <ele>200</ele>
        <time>2021-11-05T11:49:19Z</time>
      </trkpt>
      <trkpt lat="45.31687" lon="4.75988">
        <ele>201</ele>
        <time>2021-11-05T11:49:36Z</time>
      </trkpt>
      <trkpt lat="45.31682" lon="4.75982">
        <ele>202</ele>
        <time>2021-11-05T11:49:45Z</time>
      </trkpt>
      <trkpt lat="45.31668" lon="4.75939">
        <ele>211</ele>
        <time>2021-11-05T11:50:29Z</time>
      </trkpt>
      <trkpt lat="45.31652" lon="4.75899">
        <ele>221</ele>
        <time>2021-11-05T11:51:12Z</time>
      </trkpt>
      <trkpt lat="45.3163" lon="4.75853">
        <ele>231</ele>
        <time>2021-11-05T11:52:04Z</time>
      </trkpt>
      <trkpt lat="45.31622" lon="4.75827">
        <ele>235</ele>
        <time>2021-11-05T11:52:31Z</time>
      </trkpt>
      <trkpt lat="45.31623" lon="4.7582">
        <ele>235</ele>
        <time>2021-11-05T11:52:38Z</time>
      </trkpt>
      <trkpt lat="45.31628" lon="4.75818">
        <ele>233</ele>
        <time>2021-11-05T11:52:45Z</time>
      </trkpt>
      <trkpt lat="45.31642" lon="4.75828">
        <ele>229</ele>
        <time>2021-11-05T11:53:06Z</time>
      </trkpt>
      <trkpt lat="45.31646" lon="4.75825">
        <ele>228</ele>
        <time>2021-11-05T11:53:12Z</time>
      </trkpt>
      <trkpt lat="45.3161" lon="4.75776">
        <ele>239</ele>
        <time>2021-11-05T11:54:18Z</time>
      </trkpt>
      <trkpt lat="45.31597" lon="4.7575">
        <ele>244</ele>
        <time>2021-11-05T11:54:48Z</time>
      </trkpt>
      <trkpt lat="45.31586" lon="4.75734">
        <ele>248</ele>
        <time>2021-11-05T11:55:09Z</time>
      </trkpt>
      <trkpt lat="45.31575" lon="4.75724">
        <ele>252</ele>
        <time>2021-11-05T11:55:27Z</time>
      </trkpt>
      <trkpt lat="45.31555" lon="4.75693">
        <ele>260</ele>
        <time>2021-11-05T11:56:06Z</time>
      </trkpt>
      <trkpt lat="45.3155" lon="4.75674">
        <ele>263</ele>
        <time>2021-11-05T11:56:25Z</time>
      </trkpt>
      <trkpt lat="45.31531" lon="4.75643">
        <ele>273</ele>
        <time>2021-11-05T11:57:04Z</time>
      </trkpt>
      <trkpt lat="45.3152" lon="4.75614">
        <ele>279</ele>
        <time>2021-11-05T11:57:35Z</time>
      </trkpt>
      <trkpt lat="45.31515" lon="4.75589">
        <ele>283</ele>
        <time>2021-11-05T11:57:59Z</time>
      </trkpt>
      <trkpt lat="45.31514" lon="4.75566">
        <ele>284</ele>
        <time>2021-11-05T11:58:21Z</time>
      </trkpt>
      <trkpt lat="45.31516" lon="4.75554">
        <ele>283</ele>
        <time>2021-11-05T11:58:32Z</time>
      </trkpt>
      <trkpt lat="45.31505" lon="4.75552">
        <ele>288</ele>
        <time>2021-11-05T11:58:47Z</time>
      </trkpt>
      <trkpt lat="45.31502" lon="4.75548">
        <ele>290</ele>
        <time>2021-11-05T11:58:52Z</time>
      </trkpt>
      <trkpt lat="45.315" lon="4.75541">
        <ele>291</ele>
        <time>2021-11-05T11:59:00Z</time>
      </trkpt>
      <trkpt lat="45.31503" lon="4.75517">
        <ele>290</ele>
        <time>2021-11-05T11:59:22Z</time>
      </trkpt>
      <trkpt lat="45.31495" lon="4.75505">
        <ele>293</ele>
        <time>2021-11-05T11:59:38Z</time>
      </trkpt>
      <trkpt lat="45.31438" lon="4.75427">
        <ele>307</ele>
        <time>2021-11-05T12:01:23Z</time>
      </trkpt>
      <trkpt lat="45.31423" lon="4.754">
        <ele>310</ele>
        <time>2021-11-05T12:01:56Z</time>
      </trkpt>
      <trkpt lat="45.31388" lon="4.75361">
        <ele>311</ele>
        <time>2021-11-05T12:02:55Z</time>
      </trkpt>
      <trkpt lat="45.31314" lon="4.75291">
        <ele>319</ele>
        <time>2021-11-05T12:04:54Z</time>
      </trkpt>
      <trkpt lat="45.31299" lon="4.75272">
        <ele>320</ele>
        <time>2021-11-05T12:05:21Z</time>
      </trkpt>
      <trkpt lat="45.31283" lon="4.75247">
        <ele>321</ele>
        <time>2021-11-05T12:05:52Z</time>
      </trkpt>
      <trkpt lat="45.31248" lon="4.75154">
        <ele>324</ele>
        <time>2021-11-05T12:07:31Z</time>
      </trkpt>
      <trkpt lat="45.31227" lon="4.75106">
        <ele>324</ele>
        <time>2021-11-05T12:08:24Z</time>
      </trkpt>
      <trkpt lat="45.3121" lon="4.75058">
        <ele>325</ele>
        <time>2021-11-05T12:09:15Z</time>
      </trkpt>
      <trkpt lat="45.31183" lon="4.74955">
        <ele>327</ele>
        <time>2021-11-05T12:10:58Z</time>
      </trkpt>
      <trkpt lat="45.31141" lon="4.74841">
        <ele>329</ele>
        <time>2021-11-05T12:12:59Z</time>
      </trkpt>
      <trkpt lat="45.31137" lon="4.74821">
        <ele>330</ele>
        <time>2021-11-05T12:13:18Z</time>
      </trkpt>
      <trkpt lat="45.31137" lon="4.74794">
        <ele>331</ele>
        <time>2021-11-05T12:13:44Z</time>
      </trkpt>
      <trkpt lat="45.31135" lon="4.74784">
        <ele>331</ele>
        <time>2021-11-05T12:13:53Z</time>
      </trkpt>
      <trkpt lat="45.31134" lon="4.74776">
        <ele>332</ele>
        <time>2021-11-05T12:14:01Z</time>
      </trkpt>
      <trkpt lat="45.31127" lon="4.74755">
        <ele>333</ele>
        <time>2021-11-05T12:14:23Z</time>
      </trkpt>
      <trkpt lat="45.31122" lon="4.74761">
        <ele>333</ele>
        <time>2021-11-05T12:14:31Z</time>
      </trkpt>
      <trkpt lat="45.31113" lon="4.7476">
        <ele>333</ele>
        <time>2021-11-05T12:14:43Z</time>
      </trkpt>
      <trkpt lat="45.31103" lon="4.74736">
        <ele>334</ele>
        <time>2021-11-05T12:15:10Z</time>
      </trkpt>
      <trkpt lat="45.31088" lon="4.74708">
        <ele>335</ele>
        <time>2021-11-05T12:15:43Z</time>
      </trkpt>
      <trkpt lat="45.3106" lon="4.74683">
        <ele>334</ele>
        <time>2021-11-05T12:16:27Z</time>
      </trkpt>
      <trkpt lat="45.31042" lon="4.74655">
        <ele>332</ele>
        <time>2021-11-05T12:17:02Z</time>
      </trkpt>
      <trkpt lat="45.31026" lon="4.74642">
        <ele>331</ele>
        <time>2021-11-05T12:17:27Z</time>
      </trkpt>
      <trkpt lat="45.31011" lon="4.74639">
        <ele>330</ele>
        <time>2021-11-05T12:17:47Z</time>
      </trkpt>
      <trkpt lat="45.30983" lon="4.74649">
        <ele>328</ele>
        <time>2021-11-05T12:18:26Z</time>
      </trkpt>
      <trkpt lat="45.30968" lon="4.74643">
        <ele>327</ele>
        <time>2021-11-05T12:18:47Z</time>
      </trkpt>
      <trkpt lat="45.30951" lon="4.74634">
        <ele>327</ele>
        <time>2021-11-05T12:19:11Z</time>
      </trkpt>
      <trkpt lat="45.30944" lon="4.74632">
        <ele>326</ele>
        <time>2021-11-05T12:19:20Z</time>
      </trkpt>
      <trkpt lat="45.30937" lon="4.74633">
        <ele>326</ele>
        <time>2021-11-05T12:19:30Z</time>
      </trkpt>
      <trkpt lat="45.30922" lon="4.74641">
        <ele>325</ele>
        <time>2021-11-05T12:19:51Z</time>
      </trkpt>
      <trkpt lat="45.30825" lon="4.74709">
        <ele>330</ele>
        <time>2021-11-05T12:22:15Z</time>
      </trkpt>
      <trkpt lat="45.30793" lon="4.74734">
        <ele>332</ele>
        <time>2021-11-05T12:23:04Z</time>
      </trkpt>
      <trkpt lat="45.3074" lon="4.74789">
        <ele>335</ele>
        <time>2021-11-05T12:24:32Z</time>
      </trkpt>
      <trkpt lat="45.30696" lon="4.7484">
        <ele>335</ele>
        <time>2021-11-05T12:25:47Z</time>
      </trkpt>
      <trkpt lat="45.30664" lon="4.74842">
        <ele>336</ele>
        <time>2021-11-05T12:26:30Z</time>
      </trkpt>
      <trkpt lat="45.30662" lon="4.74839">
        <ele>336</ele>
        <time>2021-11-05T12:26:34Z</time>
      </trkpt>
      <trkpt lat="45.30661" lon="4.74832">
        <ele>336</ele>
        <time>2021-11-05T12:26:41Z</time>
      </trkpt>
      <trkpt lat="45.30656" lon="4.74832">
        <ele>336</ele>
        <time>2021-11-05T12:26:47Z</time>
      </trkpt>
      <trkpt lat="45.30661" lon="4.74832">
        <ele>336</ele>
        <time>2021-11-05T12:26:54Z</time>
      </trkpt>
      <trkpt lat="45.30661" lon="4.7482">
        <ele>337</ele>
        <time>2021-11-05T12:27:05Z</time>
      </trkpt>
      <trkpt lat="45.30657" lon="4.74795">
        <ele>337</ele>
        <time>2021-11-05T12:27:29Z</time>
      </trkpt>
      <trkpt lat="45.30654" lon="4.74783">
        <ele>337</ele>
        <time>2021-11-05T12:27:41Z</time>
      </trkpt>
      <trkpt lat="45.30639" lon="4.74759">
        <ele>338</ele>
        <time>2021-11-05T12:28:11Z</time>
      </trkpt>
      <trkpt lat="45.30619" lon="4.74712">
        <ele>340</ele>
        <time>2021-11-05T12:29:03Z</time>
      </trkpt>
      <trkpt lat="45.30608" lon="4.74622">
        <ele>344</ele>
        <time>2021-11-05T12:30:29Z</time>
      </trkpt>
      <trkpt lat="45.30607" lon="4.74605">
        <ele>345</ele>
        <time>2021-11-05T12:30:45Z</time>
      </trkpt>
      <trkpt lat="45.30567" lon="4.74602">
        <ele>343</ele>
        <time>2021-11-05T12:31:38Z</time>
      </trkpt>
      <trkpt lat="45.3055" lon="4.74599">
        <ele>341</ele>
        <time>2021-11-05T12:32:01Z</time>
      </trkpt>
      <trkpt lat="45.30543" lon="4.74594">
        <ele>340</ele>
        <time>2021-11-05T12:32:12Z</time>
      </trkpt>
      <trkpt lat="45.30541" lon="4.74583">
        <ele>340</ele>
        <time>2021-11-05T12:32:22Z</time>
      </trkpt>
      <trkpt lat="45.30531" lon="4.74524">
        <ele>341</ele>
        <time>2021-11-05T12:33:19Z</time>
      </trkpt>
      <trkpt lat="45.3053" lon="4.74512">
        <ele>342</ele>
        <time>2021-11-05T12:33:31Z</time>
      </trkpt>
      <trkpt lat="45.30534" lon="4.74457">
        <ele>343</ele>
        <time>2021-11-05T12:34:22Z</time>
      </trkpt>
      <trkpt lat="45.30519" lon="4.74375">
        <ele>345</ele>
        <time>2021-11-05T12:35:42Z</time>
      </trkpt>
      <trkpt lat="45.30516" lon="4.74366">
        <ele>345</ele>
        <time>2021-11-05T12:35:51Z</time>
      </trkpt>
      <trkpt lat="45.30508" lon="4.74353">
        <ele>345</ele>
        <time>2021-11-05T12:36:08Z</time>
      </trkpt>
      <trkpt lat="45.30468" lon="4.74317">
        <ele>344</ele>
        <time>2021-11-05T12:37:11Z</time>
      </trkpt>
      <trkpt lat="45.30464" lon="4.7431">
        <ele>343</ele>
        <time>2021-11-05T12:37:19Z</time>
      </trkpt>
      <trkpt lat="45.30461" lon="4.74301">
        <ele>343</ele>
        <time>2021-11-05T12:37:28Z</time>
      </trkpt>
      <trkpt lat="45.30455" lon="4.74273">
        <ele>344</ele>
        <time>2021-11-05T12:37:56Z</time>
      </trkpt>
      <trkpt lat="45.30474" lon="4.74253">
        <ele>346</ele>
        <time>2021-11-05T12:38:28Z</time>
      </trkpt>
      <trkpt lat="45.30475" lon="4.74241">
        <ele>347</ele>
        <time>2021-11-05T12:38:39Z</time>
      </trkpt>
      <trkpt lat="45.30471" lon="4.74207">
        <ele>347</ele>
        <time>2021-11-05T12:39:11Z</time>
      </trkpt>
      <trkpt lat="45.30467" lon="4.74195">
        <ele>347</ele>
        <time>2021-11-05T12:39:24Z</time>
      </trkpt>
      <trkpt lat="45.30465" lon="4.74191">
        <ele>347</ele>
        <time>2021-11-05T12:39:28Z</time>
      </trkpt>
      <trkpt lat="45.30451" lon="4.74178">
        <ele>346</ele>
        <time>2021-11-05T12:39:51Z</time>
      </trkpt>
      <trkpt lat="45.30437" lon="4.74143">
        <ele>347</ele>
        <time>2021-11-05T12:40:28Z</time>
      </trkpt>
      <trkpt lat="45.30419" lon="4.7406">
        <ele>352</ele>
        <time>2021-11-05T12:41:50Z</time>
      </trkpt>
      <trkpt lat="45.30411" lon="4.74046">
        <ele>352</ele>
        <time>2021-11-05T12:42:07Z</time>
      </trkpt>
      <trkpt lat="45.30399" lon="4.74035">
        <ele>352</ele>
        <time>2021-11-05T12:42:26Z</time>
      </trkpt>
      <trkpt lat="45.30344" lon="4.74012">
        <ele>351</ele>
        <time>2021-11-05T12:43:42Z</time>
      </trkpt>
      <trkpt lat="45.30335" lon="4.74006">
        <ele>351</ele>
        <time>2021-11-05T12:43:56Z</time>
      </trkpt>
      <trkpt lat="45.30327" lon="4.73996">
        <ele>351</ele>
        <time>2021-11-05T12:44:10Z</time>
      </trkpt>
      <trkpt lat="45.30317" lon="4.73981">
        <ele>353</ele>
        <time>2021-11-05T12:44:29Z</time>
      </trkpt>
      <trkpt lat="45.30309" lon="4.73964">
        <ele>354</ele>
        <time>2021-11-05T12:44:48Z</time>
      </trkpt>
      <trkpt lat="45.30296" lon="4.73903">
        <ele>356</ele>
        <time>2021-11-05T12:45:48Z</time>
      </trkpt>
      <trkpt lat="45.30293" lon="4.739">
        <ele>356</ele>
        <time>2021-11-05T12:45:53Z</time>
      </trkpt>
      <trkpt lat="45.30285" lon="4.73874">
        <ele>356</ele>
        <time>2021-11-05T12:46:20Z</time>
      </trkpt>
      <trkpt lat="45.30281" lon="4.73867">
        <ele>356</ele>
        <time>2021-11-05T12:46:28Z</time>
      </trkpt>
      <trkpt lat="45.30272" lon="4.73857">
        <ele>356</ele>
        <time>2021-11-05T12:46:44Z</time>
      </trkpt>
      <trkpt lat="45.30257" lon="4.73847">
        <ele>354</ele>
        <time>2021-11-05T12:47:06Z</time>
      </trkpt>
      <trkpt lat="45.30228" lon="4.73846">
        <ele>354</ele>
        <time>2021-11-05T12:47:44Z</time>
      </trkpt>
      <trkpt lat="45.30188" lon="4.73868">
        <ele>356</ele>
        <time>2021-11-05T12:48:42Z</time>
      </trkpt>
      <trkpt lat="45.30062" lon="4.73867">
        <ele>361</ele>
        <time>2021-11-05T12:51:30Z</time>
      </trkpt>
      <trkpt lat="45.30039" lon="4.73872">
        <ele>363</ele>
        <time>2021-11-05T12:52:01Z</time>
      </trkpt>
      <trkpt lat="45.30029" lon="4.73877">
        <ele>364</ele>
        <time>2021-11-05T12:52:15Z</time>
      </trkpt>
      <trkpt lat="45.30025" lon="4.73883">
        <ele>364</ele>
        <time>2021-11-05T12:52:23Z</time>
      </trkpt>
      <trkpt lat="45.30011" lon="4.73938">
        <ele>365</ele>
        <time>2021-11-05T12:53:18Z</time>
      </trkpt>
      <trkpt lat="45.30013" lon="4.73975">
        <ele>363</ele>
        <time>2021-11-05T12:53:52Z</time>
      </trkpt>
      <trkpt lat="45.30021" lon="4.74012">
        <ele>362</ele>
        <time>2021-11-05T12:54:29Z</time>
      </trkpt>
      <trkpt lat="45.30029" lon="4.7404">
        <ele>361</ele>
        <time>2021-11-05T12:54:57Z</time>
      </trkpt>
      <trkpt lat="45.30037" lon="4.74047">
        <ele>360</ele>
        <time>2021-11-05T12:55:10Z</time>
      </trkpt>
      <trkpt lat="45.30057" lon="4.74052">
        <ele>360</ele>
        <time>2021-11-05T12:55:37Z</time>
      </trkpt>
      <trkpt lat="45.30124" lon="4.74062">
        <ele>360</ele>
        <time>2021-11-05T12:57:07Z</time>
      </trkpt>
      <trkpt lat="45.30182" lon="4.74066">
        <ele>358</ele>
        <time>2021-11-05T12:58:24Z</time>
      </trkpt>
      <trkpt lat="45.30209" lon="4.74119">
        <ele>355</ele>
        <time>2021-11-05T12:59:26Z</time>
      </trkpt>
      <trkpt lat="45.3024" lon="4.7415">
        <ele>352</ele>
        <time>2021-11-05T13:00:16Z</time>
      </trkpt>
      <trkpt lat="45.30259" lon="4.74179">
        <ele>350</ele>
        <time>2021-11-05T13:00:53Z</time>
      </trkpt>
      <trkpt lat="45.30268" lon="4.74204">
        <ele>348</ele>
        <time>2021-11-05T13:01:20Z</time>
      </trkpt>
      <trkpt lat="45.30287" lon="4.74297">
        <ele>343</ele>
        <time>2021-11-05T13:02:51Z</time>
      </trkpt>
      <trkpt lat="45.30289" lon="4.7432">
        <ele>342</ele>
        <time>2021-11-05T13:03:12Z</time>
      </trkpt>
      <trkpt lat="45.30283" lon="4.74359">
        <ele>341</ele>
        <time>2021-11-05T13:03:50Z</time>
      </trkpt>
      <trkpt lat="45.30218" lon="4.74394">
        <ele>340</ele>
        <time>2021-11-05T13:05:23Z</time>
      </trkpt>
      <trkpt lat="45.30169" lon="4.74416">
        <ele>338</ele>
        <time>2021-11-05T13:06:31Z</time>
      </trkpt>
      <trkpt lat="45.30143" lon="4.74416">
        <ele>339</ele>
        <time>2021-11-05T13:07:06Z</time>
      </trkpt>
      <trkpt lat="45.30115" lon="4.7442">
        <ele>340</ele>
        <time>2021-11-05T13:07:43Z</time>
      </trkpt>
      <trkpt lat="45.3011" lon="4.74424">
        <ele>341</ele>
        <time>2021-11-05T13:07:51Z</time>
      </trkpt>
      <trkpt lat="45.30107" lon="4.74433">
        <ele>341</ele>
        <time>2021-11-05T13:08:00Z</time>
      </trkpt>
      <trkpt lat="45.30106" lon="4.74447">
        <ele>341</ele>
        <time>2021-11-05T13:08:14Z</time>
      </trkpt>
      <trkpt lat="45.30112" lon="4.74473">
        <ele>340</ele>
        <time>2021-11-05T13:08:39Z</time>
      </trkpt>
      <trkpt lat="45.30119" lon="4.74484">
        <ele>340</ele>
        <time>2021-11-05T13:08:53Z</time>
      </trkpt>
      <trkpt lat="45.30189" lon="4.74536">
        <ele>338</ele>
        <time>2021-11-05T13:10:39Z</time>
      </trkpt>
      <trkpt lat="45.30215" lon="4.74566">
        <ele>338</ele>
        <time>2021-11-05T13:11:23Z</time>
      </trkpt>
      <trkpt lat="45.30227" lon="4.74588">
        <ele>338</ele>
        <time>2021-11-05T13:11:49Z</time>
      </trkpt>
      <trkpt lat="45.30249" lon="4.74728">
        <ele>346</ele>
        <time>2021-11-05T13:14:04Z</time>
      </trkpt>
      <trkpt lat="45.30249" lon="4.74739">
        <ele>346</ele>
        <time>2021-11-05T13:14:14Z</time>
      </trkpt>
      <trkpt lat="45.30246" lon="4.74753">
        <ele>347</ele>
        <time>2021-11-05T13:14:28Z</time>
      </trkpt>
      <trkpt lat="45.30238" lon="4.74768">
        <ele>348</ele>
        <time>2021-11-05T13:14:46Z</time>
      </trkpt>
      <trkpt lat="45.30225" lon="4.74779">
        <ele>349</ele>
        <time>2021-11-05T13:15:06Z</time>
      </trkpt>
      <trkpt lat="45.30206" lon="4.74789">
        <ele>351</ele>
        <time>2021-11-05T13:15:33Z</time>
      </trkpt>
      <trkpt lat="45.3016" lon="4.74802">
        <ele>355</ele>
        <time>2021-11-05T13:16:36Z</time>
      </trkpt>
      <trkpt lat="45.30082" lon="4.74831">
        <ele>355</ele>
        <time>2021-11-05T13:18:23Z</time>
      </trkpt>
      <trkpt lat="45.30062" lon="4.74833">
        <ele>356</ele>
        <time>2021-11-05T13:18:50Z</time>
      </trkpt>
      <trkpt lat="45.30046" lon="4.74839">
        <ele>357</ele>
        <time>2021-11-05T13:19:12Z</time>
      </trkpt>
      <trkpt lat="45.30015" lon="4.74859">
        <ele>358</ele>
        <time>2021-11-05T13:19:57Z</time>
      </trkpt>
      <trkpt lat="45.30006" lon="4.74867">
        <ele>358</ele>
        <time>2021-11-05T13:20:12Z</time>
      </trkpt>
      <trkpt lat="45.30002" lon="4.74878">
        <ele>358</ele>
        <time>2021-11-05T13:20:23Z</time>
      </trkpt>
      <trkpt lat="45.30002" lon="4.74917">
        <ele>356</ele>
        <time>2021-11-05T13:21:00Z</time>
      </trkpt>
      <trkpt lat="45.30011" lon="4.74943">
        <ele>356</ele>
        <time>2021-11-05T13:21:27Z</time>
      </trkpt>
      <trkpt lat="45.30023" lon="4.74968">
        <ele>355</ele>
        <time>2021-11-05T13:21:55Z</time>
      </trkpt>
      <trkpt lat="45.30028" lon="4.74988">
        <ele>354</ele>
        <time>2021-11-05T13:22:15Z</time>
      </trkpt>
      <trkpt lat="45.30031" lon="4.75027">
        <ele>354</ele>
        <time>2021-11-05T13:22:52Z</time>
      </trkpt>
      <trkpt lat="45.30028" lon="4.75057">
        <ele>354</ele>
        <time>2021-11-05T13:23:21Z</time>
      </trkpt>
      <trkpt lat="45.30008" lon="4.75116">
        <ele>356</ele>
        <time>2021-11-05T13:24:22Z</time>
      </trkpt>
      <trkpt lat="45.30007" lon="4.75126">
        <ele>356</ele>
        <time>2021-11-05T13:24:32Z</time>
      </trkpt>
      <trkpt lat="45.3001" lon="4.75138">
        <ele>355</ele>
        <time>2021-11-05T13:24:44Z</time>
      </trkpt>
      <trkpt lat="45.30047" lon="4.75178">
        <ele>349</ele>
        <time>2021-11-05T13:25:46Z</time>
      </trkpt>
      <trkpt lat="45.30061" lon="4.75202">
        <ele>348</ele>
        <time>2021-11-05T13:26:15Z</time>
      </trkpt>
      <trkpt lat="45.30072" lon="4.75231">
        <ele>347</ele>
        <time>2021-11-05T13:26:46Z</time>
      </trkpt>
      <trkpt lat="45.30079" lon="4.75254">
        <ele>347</ele>
        <time>2021-11-05T13:27:09Z</time>
      </trkpt>
      <trkpt lat="45.30087" lon="4.75301">
        <ele>348</ele>
        <time>2021-11-05T13:27:55Z</time>
      </trkpt>
      <trkpt lat="45.30094" lon="4.75323">
        <ele>349</ele>
        <time>2021-11-05T13:28:17Z</time>
      </trkpt>
      <trkpt lat="45.30111" lon="4.75353">
        <ele>348</ele>
        <time>2021-11-05T13:28:54Z</time>
      </trkpt>
      <trkpt lat="45.30123" lon="4.75383">
        <ele>347</ele>
        <time>2021-11-05T13:29:26Z</time>
      </trkpt>
      <trkpt lat="45.30133" lon="4.75398">
        <ele>347</ele>
        <time>2021-11-05T13:29:45Z</time>
      </trkpt>
      <trkpt lat="45.30154" lon="4.75422">
        <ele>347</ele>
        <time>2021-11-05T13:30:21Z</time>
      </trkpt>
      <trkpt lat="45.30184" lon="4.75443">
        <ele>347</ele>
        <time>2021-11-05T13:31:06Z</time>
      </trkpt>
      <trkpt lat="45.30196" lon="4.75447">
        <ele>347</ele>
        <time>2021-11-05T13:31:22Z</time>
      </trkpt>
      <trkpt lat="45.30225" lon="4.75454">
        <ele>346</ele>
        <time>2021-11-05T13:32:02Z</time>
      </trkpt>
      <trkpt lat="45.30234" lon="4.75458">
        <ele>346</ele>
        <time>2021-11-05T13:32:14Z</time>
      </trkpt>
      <trkpt lat="45.30283" lon="4.75499">
        <ele>345</ele>
        <time>2021-11-05T13:33:30Z</time>
      </trkpt>
      <trkpt lat="45.30322" lon="4.75528">
        <ele>344</ele>
        <time>2021-11-05T13:34:29Z</time>
      </trkpt>
      <trkpt lat="45.30327" lon="4.75538">
        <ele>344</ele>
        <time>2021-11-05T13:34:40Z</time>
      </trkpt>
      <trkpt lat="45.30292" lon="4.75533">
        <ele>345</ele>
        <time>2021-11-05T13:35:27Z</time>
      </trkpt>
      <trkpt lat="45.30217" lon="4.75512">
        <ele>348</ele>
        <time>2021-11-05T13:37:09Z</time>
      </trkpt>
      <trkpt lat="45.30204" lon="4.75511">
        <ele>349</ele>
        <time>2021-11-05T13:37:27Z</time>
      </trkpt>
      <trkpt lat="45.30174" lon="4.75521">
        <ele>350</ele>
        <time>2021-11-05T13:38:08Z</time>
      </trkpt>
      <trkpt lat="45.30097" lon="4.75536">
        <ele>350</ele>
        <time>2021-11-05T13:39:51Z</time>
      </trkpt>
      <trkpt lat="45.30019" lon="4.75544">
        <ele>351</ele>
        <time>2021-11-05T13:41:36Z</time>
      </trkpt>
      <trkpt lat="45.30019" lon="4.75537">
        <ele>351</ele>
        <time>2021-11-05T13:41:42Z</time>
      </trkpt>
      <trkpt lat="45.29989" lon="4.75548">
        <ele>351</ele>
        <time>2021-11-05T13:42:24Z</time>
      </trkpt>
      <trkpt lat="45.29897" lon="4.75573">
        <ele>348</ele>
        <time>2021-11-05T13:44:29Z</time>
      </trkpt>
      <trkpt lat="45.29872" lon="4.75582">
        <ele>346</ele>
        <time>2021-11-05T13:45:03Z</time>
      </trkpt>
      <trkpt lat="45.29842" lon="4.75599">
        <ele>345</ele>
        <time>2021-11-05T13:45:46Z</time>
      </trkpt>
      <trkpt lat="45.29821" lon="4.75614">
        <ele>342</ele>
        <time>2021-11-05T13:46:18Z</time>
      </trkpt>
      <trkpt lat="45.29809" lon="4.75616">
        <ele>341</ele>
        <time>2021-11-05T13:46:34Z</time>
      </trkpt>
      <trkpt lat="45.29778" lon="4.75609">
        <ele>339</ele>
        <time>2021-11-05T13:47:16Z</time>
      </trkpt>
      <trkpt lat="45.29772" lon="4.7561">
        <ele>338</ele>
        <time>2021-11-05T13:47:24Z</time>
      </trkpt>
      <trkpt lat="45.29743" lon="4.75612">
        <ele>336</ele>
        <time>2021-11-05T13:48:02Z</time>
      </trkpt>
      <trkpt lat="45.29714" lon="4.75621">
        <ele>332</ele>
        <time>2021-11-05T13:48:42Z</time>
      </trkpt>
      <trkpt lat="45.29704" lon="4.75621">
        <ele>331</ele>
        <time>2021-11-05T13:48:55Z</time>
      </trkpt>
      <trkpt lat="45.29676" lon="4.7561">
        <ele>329</ele>
        <time>2021-11-05T13:49:34Z</time>
      </trkpt>
      <trkpt lat="45.29666" lon="4.75602">
        <ele>328</ele>
        <time>2021-11-05T13:49:49Z</time>
      </trkpt>
      <trkpt lat="45.2966" lon="4.7559">
        <ele>329</ele>
        <time>2021-11-05T13:50:03Z</time>
      </trkpt>
      <trkpt lat="45.29662" lon="4.75547">
        <ele>328</ele>
        <time>2021-11-05T13:50:44Z</time>
      </trkpt>
      <trkpt lat="45.29655" lon="4.75512">
        <ele>328</ele>
        <time>2021-11-05T13:51:18Z</time>
      </trkpt>
      <trkpt lat="45.29648" lon="4.75498">
        <ele>329</ele>
        <time>2021-11-05T13:51:34Z</time>
      </trkpt>
      <trkpt lat="45.29632" lon="4.75492">
        <ele>330</ele>
        <time>2021-11-05T13:51:56Z</time>
      </trkpt>
      <trkpt lat="45.29606" lon="4.75484">
        <ele>332</ele>
        <time>2021-11-05T13:52:32Z</time>
      </trkpt>
      <trkpt lat="45.29599" lon="4.75492">
        <ele>332</ele>
        <time>2021-11-05T13:52:44Z</time>
      </trkpt>
      <trkpt lat="45.29599" lon="4.75505">
        <ele>333</ele>
        <time>2021-11-05T13:52:56Z</time>
      </trkpt>
      <trkpt lat="45.29608" lon="4.7553">
        <ele>333</ele>
        <time>2021-11-05T13:53:22Z</time>
      </trkpt>
      <trkpt lat="45.29615" lon="4.75542">
        <ele>333</ele>
        <time>2021-11-05T13:53:37Z</time>
      </trkpt>
      <trkpt lat="45.29615" lon="4.75555">
        <ele>333</ele>
        <time>2021-11-05T13:53:49Z</time>
      </trkpt>
      <trkpt lat="45.29604" lon="4.75595">
        <ele>336</ele>
        <time>2021-11-05T13:54:29Z</time>
      </trkpt>
      <trkpt lat="45.29607" lon="4.75621">
        <ele>336</ele>
        <time>2021-11-05T13:54:54Z</time>
      </trkpt>
      <trkpt lat="45.29622" lon="4.75667">
        <ele>335</ele>
        <time>2021-11-05T13:55:42Z</time>
      </trkpt>
      <trkpt lat="45.29637" lon="4.75696">
        <ele>334</ele>
        <time>2021-11-05T13:56:15Z</time>
      </trkpt>
      <trkpt lat="45.29659" lon="4.75721">
        <ele>332</ele>
        <time>2021-11-05T13:56:53Z</time>
      </trkpt>
      <trkpt lat="45.2968" lon="4.7575">
        <ele>332</ele>
        <time>2021-11-05T13:57:32Z</time>
      </trkpt>
      <trkpt lat="45.29682" lon="4.75785">
        <ele>334</ele>
        <time>2021-11-05T13:58:05Z</time>
      </trkpt>
      <trkpt lat="45.29711" lon="4.7582">
        <ele>332</ele>
        <time>2021-11-05T13:58:56Z</time>
      </trkpt>
      <trkpt lat="45.29718" lon="4.75897">
        <ele>332</ele>
        <time>2021-11-05T14:00:09Z</time>
      </trkpt>
      <trkpt lat="45.29715" lon="4.75912">
        <ele>333</ele>
        <time>2021-11-05T14:00:23Z</time>
      </trkpt>
      <trkpt lat="45.29705" lon="4.75921">
        <ele>334</ele>
        <time>2021-11-05T14:00:39Z</time>
      </trkpt>
      <trkpt lat="45.29675" lon="4.75931">
        <ele>338</ele>
        <time>2021-11-05T14:01:20Z</time>
      </trkpt>
      <trkpt lat="45.29614" lon="4.75963">
        <ele>342</ele>
        <time>2021-11-05T14:02:47Z</time>
      </trkpt>
      <trkpt lat="45.29578" lon="4.75978">
        <ele>344</ele>
        <time>2021-11-05T14:03:37Z</time>
      </trkpt>
      <trkpt lat="45.2955" lon="4.75999">
        <ele>343</ele>
        <time>2021-11-05T14:04:19Z</time>
      </trkpt>
      <trkpt lat="45.2954" lon="4.76">
        <ele>342</ele>
        <time>2021-11-05T14:04:33Z</time>
      </trkpt>
      <trkpt lat="45.29533" lon="4.75998">
        <ele>342</ele>
        <time>2021-11-05T14:04:42Z</time>
      </trkpt>
      <trkpt lat="45.29501" lon="4.75982">
        <ele>342</ele>
        <time>2021-11-05T14:05:27Z</time>
      </trkpt>
      <trkpt lat="45.29473" lon="4.75965">
        <ele>340</ele>
        <time>2021-11-05T14:06:08Z</time>
      </trkpt>
      <trkpt lat="45.29467" lon="4.75958">
        <ele>340</ele>
        <time>2021-11-05T14:06:18Z</time>
      </trkpt>
      <trkpt lat="45.29469" lon="4.75965">
        <ele>340</ele>
        <time>2021-11-05T14:06:26Z</time>
      </trkpt>
      <trkpt lat="45.29467" lon="4.75958">
        <ele>340</ele>
        <time>2021-11-05T14:06:33Z</time>
      </trkpt>
      <trkpt lat="45.29464" lon="4.7595">
        <ele>341</ele>
        <time>2021-11-05T14:06:41Z</time>
      </trkpt>
      <trkpt lat="45.29424" lon="4.75954">
        <ele>338</ele>
        <time>2021-11-05T14:07:35Z</time>
      </trkpt>
      <trkpt lat="45.29377" lon="4.75962">
        <ele>333</ele>
        <time>2021-11-05T14:08:38Z</time>
      </trkpt>
      <trkpt lat="45.29331" lon="4.7598">
        <ele>327</ele>
        <time>2021-11-05T14:09:42Z</time>
      </trkpt>
      <trkpt lat="45.29295" lon="4.75974">
        <ele>326</ele>
        <time>2021-11-05T14:10:30Z</time>
      </trkpt>
      <trkpt lat="45.29261" lon="4.75953">
        <ele>325</ele>
        <time>2021-11-05T14:11:19Z</time>
      </trkpt>
      <trkpt lat="45.29223" lon="4.75924">
        <ele>326</ele>
        <time>2021-11-05T14:12:17Z</time>
      </trkpt>
      <trkpt lat="45.2919" lon="4.75905">
        <ele>327</ele>
        <time>2021-11-05T14:13:04Z</time>
      </trkpt>
      <trkpt lat="45.29149" lon="4.75897">
        <ele>328</ele>
        <time>2021-11-05T14:14:00Z</time>
      </trkpt>
      <trkpt lat="45.29073" lon="4.75903">
        <ele>331</ele>
        <time>2021-11-05T14:15:41Z</time>
      </trkpt>
      <trkpt lat="45.28983" lon="4.75895">
        <ele>334</ele>
        <time>2021-11-05T14:17:42Z</time>
      </trkpt>
      <trkpt lat="45.28957" lon="4.75917">
        <ele>338</ele>
        <time>2021-11-05T14:18:22Z</time>
      </trkpt>
      <trkpt lat="45.28936" lon="4.75975">
        <ele>344</ele>
        <time>2021-11-05T14:19:23Z</time>
      </trkpt>
      <trkpt lat="45.28904" lon="4.75995">
        <ele>347</ele>
        <time>2021-11-05T14:20:10Z</time>
      </trkpt>
      <trkpt lat="45.28869" lon="4.76">
        <ele>348</ele>
        <time>2021-11-05T14:20:57Z</time>
      </trkpt>
      <trkpt lat="45.28833" lon="4.75997">
        <ele>349</ele>
        <time>2021-11-05T14:21:45Z</time>
      </trkpt>
      <trkpt lat="45.28802" lon="4.76005">
        <ele>350</ele>
        <time>2021-11-05T14:22:27Z</time>
      </trkpt>
      <trkpt lat="45.2876" lon="4.7607">
        <ele>353</ele>
        <time>2021-11-05T14:23:50Z</time>
      </trkpt>
      <trkpt lat="45.28722" lon="4.76064">
        <ele>355</ele>
        <time>2021-11-05T14:24:41Z</time>
      </trkpt>
      <trkpt lat="45.28716" lon="4.76127">
        <ele>356</ele>
        <time>2021-11-05T14:25:41Z</time>
      </trkpt>
      <trkpt lat="45.28698" lon="4.76137">
        <ele>357</ele>
        <time>2021-11-05T14:26:06Z</time>
      </trkpt>
      <trkpt lat="45.28636" lon="4.76117">
        <ele>361</ele>
        <time>2021-11-05T14:27:31Z</time>
      </trkpt>
      <trkpt lat="45.2855" lon="4.76124">
        <ele>365</ele>
        <time>2021-11-05T14:29:26Z</time>
      </trkpt>
      <trkpt lat="45.28521" lon="4.7613">
        <ele>365</ele>
        <time>2021-11-05T14:30:05Z</time>
      </trkpt>
      <trkpt lat="45.28495" lon="4.76128">
        <ele>366</ele>
        <time>2021-11-05T14:30:40Z</time>
      </trkpt>
      <trkpt lat="45.2846" lon="4.76119">
        <ele>368</ele>
        <time>2021-11-05T14:31:27Z</time>
      </trkpt>
      <trkpt lat="45.28414" lon="4.76144">
        <ele>370</ele>
        <time>2021-11-05T14:32:33Z</time>
      </trkpt>
      <trkpt lat="45.2838" lon="4.76169">
        <ele>372</ele>
        <time>2021-11-05T14:33:24Z</time>
      </trkpt>
      <trkpt lat="45.28377" lon="4.76175">
        <ele>372</ele>
        <time>2021-11-05T14:33:31Z</time>
      </trkpt>
      <trkpt lat="45.28377" lon="4.76201">
        <ele>373</ele>
        <time>2021-11-05T14:33:56Z</time>
      </trkpt>
      <trkpt lat="45.28357" lon="4.76194">
        <ele>375</ele>
        <time>2021-11-05T14:34:23Z</time>
      </trkpt>
      <trkpt lat="45.28341" lon="4.76272">
        <ele>378</ele>
        <time>2021-11-05T14:35:39Z</time>
      </trkpt>
      <trkpt lat="45.28331" lon="4.76293">
        <ele>379</ele>
        <time>2021-11-05T14:36:03Z</time>
      </trkpt>
      <trkpt lat="45.28326" lon="4.76317">
        <ele>379</ele>
        <time>2021-11-05T14:36:27Z</time>
      </trkpt>
      <trkpt lat="45.28336" lon="4.76335">
        <ele>379</ele>
        <time>2021-11-05T14:36:48Z</time>
      </trkpt>
      <trkpt lat="45.28352" lon="4.76381">
        <ele>379</ele>
        <time>2021-11-05T14:37:36Z</time>
      </trkpt>
      <trkpt lat="45.28365" lon="4.76442">
        <ele>380</ele>
        <time>2021-11-05T14:38:36Z</time>
      </trkpt>
      <trkpt lat="45.28374" lon="4.76496">
        <ele>380</ele>
        <time>2021-11-05T14:39:28Z</time>
      </trkpt>
      <trkpt lat="45.28375" lon="4.76526">
        <ele>381</ele>
        <time>2021-11-05T14:39:56Z</time>
      </trkpt>
      <trkpt lat="45.28363" lon="4.76651">
        <ele>383</ele>
        <time>2021-11-05T14:41:55Z</time>
      </trkpt>
      <trkpt lat="45.28364" lon="4.76864">
        <ele>378</ele>
        <time>2021-11-05T14:45:15Z</time>
      </trkpt>
      <trkpt lat="45.28395" lon="4.76877">
        <ele>378</ele>
        <time>2021-11-05T14:45:58Z</time>
      </trkpt>
      <trkpt lat="45.28417" lon="4.76902">
        <ele>377</ele>
        <time>2021-11-05T14:46:36Z</time>
      </trkpt>
      <trkpt lat="45.28454" lon="4.76948">
        <ele>375</ele>
        <time>2021-11-05T14:47:41Z</time>
      </trkpt>
      <trkpt lat="45.28492" lon="4.77004">
        <ele>373</ele>
        <time>2021-11-05T14:48:54Z</time>
      </trkpt>
      <trkpt lat="45.28516" lon="4.77046">
        <ele>371</ele>
        <time>2021-11-05T14:49:45Z</time>
      </trkpt>
      <trkpt lat="45.28528" lon="4.77088">
        <ele>370</ele>
        <time>2021-11-05T14:50:28Z</time>
      </trkpt>
      <trkpt lat="45.28559" lon="4.77101">
        <ele>371</ele>
        <time>2021-11-05T14:51:11Z</time>
      </trkpt>
      <trkpt lat="45.28611" lon="4.7714">
        <ele>371</ele>
        <time>2021-11-05T14:52:29Z</time>
      </trkpt>
      <trkpt lat="45.28685" lon="4.77169">
        <ele>371</ele>
        <time>2021-11-05T14:54:12Z</time>
      </trkpt>
      <trkpt lat="45.28802" lon="4.77225">
        <ele>366</ele>
        <time>2021-11-05T14:56:56Z</time>
      </trkpt>
      <trkpt lat="45.28887" lon="4.77311">
        <ele>357</ele>
        <time>2021-11-05T14:59:16Z</time>
      </trkpt>
      <trkpt lat="45.28884" lon="4.77319">
        <ele>357</ele>
        <time>2021-11-05T14:59:24Z</time>
      </trkpt>
      <trkpt lat="45.28887" lon="4.77311">
        <ele>357</ele>
        <time>2021-11-05T14:59:33Z</time>
      </trkpt>
      <trkpt lat="45.28901" lon="4.77309">
        <ele>355</ele>
        <time>2021-11-05T14:59:51Z</time>
      </trkpt>
      <trkpt lat="45.28914" lon="4.77312">
        <ele>354</ele>
        <time>2021-11-05T15:00:09Z</time>
      </trkpt>
      <trkpt lat="45.28947" lon="4.77312">
        <ele>351</ele>
        <time>2021-11-05T15:00:53Z</time>
      </trkpt>
      <trkpt lat="45.29046" lon="4.77321">
        <ele>343</ele>
        <time>2021-11-05T15:03:05Z</time>
      </trkpt>
      <trkpt lat="45.29067" lon="4.77315">
        <ele>341</ele>
        <time>2021-11-05T15:03:34Z</time>
      </trkpt>
      <trkpt lat="45.29104" lon="4.77329">
        <ele>337</ele>
        <time>2021-11-05T15:04:25Z</time>
      </trkpt>
      <trkpt lat="45.29124" lon="4.77327">
        <ele>334</ele>
        <time>2021-11-05T15:04:52Z</time>
      </trkpt>
      <trkpt lat="45.29151" lon="4.77312">
        <ele>332</ele>
        <time>2021-11-05T15:05:31Z</time>
      </trkpt>
      <trkpt lat="45.29175" lon="4.77304">
        <ele>330</ele>
        <time>2021-11-05T15:06:03Z</time>
      </trkpt>
      <trkpt lat="45.29183" lon="4.77304">
        <ele>330</ele>
        <time>2021-11-05T15:06:14Z</time>
      </trkpt>
      <trkpt lat="45.29175" lon="4.77304">
        <ele>330</ele>
        <time>2021-11-05T15:06:25Z</time>
      </trkpt>
      <trkpt lat="45.29151" lon="4.77312">
        <ele>332</ele>
        <time>2021-11-05T15:06:58Z</time>
      </trkpt>
      <trkpt lat="45.29184" lon="4.77342">
        <ele>330</ele>
        <time>2021-11-05T15:07:50Z</time>
      </trkpt>
      <trkpt lat="45.29229" lon="4.77349">
        <ele>328</ele>
        <time>2021-11-05T15:08:50Z</time>
      </trkpt>
      <trkpt lat="45.29248" lon="4.77355">
        <ele>327</ele>
        <time>2021-11-05T15:09:16Z</time>
      </trkpt>
      <trkpt lat="45.29274" lon="4.77374">
        <ele>328</ele>
        <time>2021-11-05T15:09:55Z</time>
      </trkpt>
      <trkpt lat="45.29307" lon="4.77422">
        <ele>326</ele>
        <time>2021-11-05T15:10:58Z</time>
      </trkpt>
      <trkpt lat="45.29325" lon="4.77432">
        <ele>324</ele>
        <time>2021-11-05T15:11:24Z</time>
      </trkpt>
      <trkpt lat="45.29357" lon="4.77457">
        <ele>325</ele>
        <time>2021-11-05T15:12:13Z</time>
      </trkpt>
      <trkpt lat="45.29365" lon="4.77478">
        <ele>325</ele>
        <time>2021-11-05T15:12:35Z</time>
      </trkpt>
      <trkpt lat="45.29391" lon="4.77495">
        <ele>322</ele>
        <time>2021-11-05T15:13:14Z</time>
      </trkpt>
      <trkpt lat="45.29421" lon="4.77526">
        <ele>316</ele>
        <time>2021-11-05T15:14:03Z</time>
      </trkpt>
      <trkpt lat="45.2946" lon="4.77569">
        <ele>307</ele>
        <time>2021-11-05T15:15:09Z</time>
      </trkpt>
      <trkpt lat="45.2949" lon="4.77612">
        <ele>292</ele>
        <time>2021-11-05T15:16:06Z</time>
      </trkpt>
      <trkpt lat="45.29508" lon="4.77646">
        <ele>281</ele>
        <time>2021-11-05T15:16:46Z</time>
      </trkpt>
      <trkpt lat="45.29516" lon="4.77669">
        <ele>273</ele>
        <time>2021-11-05T15:17:10Z</time>
      </trkpt>
      <trkpt lat="45.29519" lon="4.77691">
        <ele>269</ele>
        <time>2021-11-05T15:17:31Z</time>
      </trkpt>
      <trkpt lat="45.29505" lon="4.77703">
        <ele>272</ele>
        <time>2021-11-05T15:17:53Z</time>
      </trkpt>
      <trkpt lat="45.29466" lon="4.77701">
        <ele>285</ele>
        <time>2021-11-05T15:18:45Z</time>
      </trkpt>
      <trkpt lat="45.29451" lon="4.77704">
        <ele>289</ele>
        <time>2021-11-05T15:19:05Z</time>
      </trkpt>
      <trkpt lat="45.29441" lon="4.77711">
        <ele>292</ele>
        <time>2021-11-05T15:19:20Z</time>
      </trkpt>
      <trkpt lat="45.29437" lon="4.77723">
        <ele>292</ele>
        <time>2021-11-05T15:19:32Z</time>
      </trkpt>
      <trkpt lat="45.29441" lon="4.77734">
        <ele>290</ele>
        <time>2021-11-05T15:19:44Z</time>
      </trkpt>
      <trkpt lat="45.29509" lon="4.77796">
        <ele>267</ele>
        <time>2021-11-05T15:21:32Z</time>
      </trkpt>
      <trkpt lat="45.29534" lon="4.77817">
        <ele>258</ele>
        <time>2021-11-05T15:22:10Z</time>
      </trkpt>
      <trkpt lat="45.29556" lon="4.7783">
        <ele>250</ele>
        <time>2021-11-05T15:22:42Z</time>
      </trkpt>
      <trkpt lat="45.29568" lon="4.77844">
        <ele>245</ele>
        <time>2021-11-05T15:23:03Z</time>
      </trkpt>
      <trkpt lat="45.29573" lon="4.77853">
        <ele>243</ele>
        <time>2021-11-05T15:23:14Z</time>
      </trkpt>
      <trkpt lat="45.29568" lon="4.7787">
        <ele>246</ele>
        <time>2021-11-05T15:23:31Z</time>
      </trkpt>
      <trkpt lat="45.29574" lon="4.779">
        <ele>244</ele>
        <time>2021-11-05T15:24:00Z</time>
      </trkpt>
      <trkpt lat="45.29583" lon="4.77925">
        <ele>241</ele>
        <time>2021-11-05T15:24:27Z</time>
      </trkpt>
      <trkpt lat="45.29615" lon="4.77976">
        <ele>232</ele>
        <time>2021-11-05T15:25:31Z</time>
      </trkpt>
      <trkpt lat="45.2963" lon="4.78004">
        <ele>228</ele>
        <time>2021-11-05T15:26:04Z</time>
      </trkpt>
      <trkpt lat="45.2967" lon="4.78062">
        <ele>215</ele>
        <time>2021-11-05T15:27:20Z</time>
      </trkpt>
      <trkpt lat="45.29697" lon="4.78106">
        <ele>209</ele>
        <time>2021-11-05T15:28:15Z</time>
      </trkpt>
      <trkpt lat="45.29699" lon="4.78121">
        <ele>209</ele>
        <time>2021-11-05T15:28:29Z</time>
      </trkpt>
      <trkpt lat="45.29714" lon="4.78169">
        <ele>202</ele>
        <time>2021-11-05T15:29:19Z</time>
      </trkpt>
      <trkpt lat="45.29723" lon="4.78208">
        <ele>200</ele>
        <time>2021-11-05T15:29:57Z</time>
      </trkpt>
      <trkpt lat="45.29739" lon="4.78239">
        <ele>191</ele>
        <time>2021-11-05T15:30:33Z</time>
      </trkpt>
      <trkpt lat="45.29765" lon="4.78285">
        <ele>187</ele>
        <time>2021-11-05T15:31:29Z</time>
      </trkpt>
      <trkpt lat="45.29791" lon="4.78343">
        <ele>182</ele>
        <time>2021-11-05T15:32:33Z</time>
      </trkpt>
      <trkpt lat="45.29815" lon="4.78413">
        <ele>178</ele>
        <time>2021-11-05T15:33:46Z</time>
      </trkpt>
      <trkpt lat="45.2984" lon="4.78459">
        <ele>176</ele>
        <time>2021-11-05T15:34:41Z</time>
      </trkpt>
      <trkpt lat="45.29868" lon="4.7854">
        <ele>177</ele>
        <time>2021-11-05T15:36:05Z</time>
      </trkpt>
      <trkpt lat="45.29896" lon="4.78588">
        <ele>165</ele>
        <time>2021-11-05T15:37:04Z</time>
      </trkpt>
      <trkpt lat="45.2993" lon="4.78634">
        <ele>156</ele>
        <time>2021-11-05T15:38:07Z</time>
      </trkpt>
      <trkpt lat="45.29942" lon="4.7864">
        <ele>154</ele>
        <time>2021-11-05T15:38:24Z</time>
      </trkpt>
      <trkpt lat="45.29971" lon="4.78665">
        <ele>149</ele>
        <time>2021-11-05T15:39:09Z</time>
      </trkpt>
      <trkpt lat="45.30007" lon="4.78685">
        <ele>143</ele>
        <time>2021-11-05T15:40:00Z</time>
      </trkpt>
      <trkpt lat="45.30028" lon="4.7869">
        <ele>142</ele>
        <time>2021-11-05T15:40:29Z</time>
      </trkpt>
      <trkpt lat="45.30041" lon="4.78689">
        <ele>142</ele>
        <time>2021-11-05T15:40:46Z</time>
      </trkpt>
      <trkpt lat="45.30098" lon="4.78663">
        <ele>142</ele>
        <time>2021-11-05T15:42:06Z</time>
      </trkpt>
      <trkpt lat="45.30112" lon="4.78665">
        <ele>141</ele>
        <time>2021-11-05T15:42:25Z</time>
      </trkpt>
      <trkpt lat="45.30126" lon="4.78684">
        <ele>140</ele>
        <time>2021-11-05T15:42:51Z</time>
      </trkpt>
      <trkpt lat="45.30144" lon="4.78721">
        <ele>138</ele>
        <time>2021-11-05T15:43:33Z</time>
      </trkpt>
      <trkpt lat="45.30156" lon="4.78765">
        <ele>137</ele>
        <time>2021-11-05T15:44:17Z</time>
      </trkpt>
      <trkpt lat="45.30167" lon="4.78785">
        <ele>137</ele>
        <time>2021-11-05T15:44:41Z</time>
      </trkpt>
    </trkseg>
  </trk>
</gpx>